createdAt,value
2022-08-11T00:00:01.322Z,2.40
2022-08-11T00:02:34.586Z,1.90
2022-08-11T00:05:08.192Z,2.45
2022-08-11T00:07:42.396Z,2.08
2022-08-11T00:10:13.236Z,2.17
2022-08-11T00:12:44.126Z,2.03
2022-08-11T00:15:14.447Z,2.53
2022-08-11T00:17:43.751Z,2.60
2022-08-11T00:20:16.958Z,2.35
2022-08-11T00:22:48.230Z,2.50
2022-08-11T00:25:19.329Z,2.00
2022-08-11T00:27:49.944Z,2.30
2022-08-11T00:30:19.490Z,2.38
2022-08-11T00:32:56.249Z,2.33
2022-08-11T00:35:55.429Z,2.67
2022-08-11T00:38:25.874Z,2.58
2022-08-11T00:41:00.631Z,2.70
2022-08-11T00:43:48.571Z,2.72
2022-08-11T00:46:30.220Z,2.17
2022-08-11T00:49:12.050Z,2.60
2022-08-11T00:52:02.253Z,2.33
2022-08-11T00:55:24.207Z,2.60
2022-08-11T00:58:23.838Z,2.33
2022-08-11T01:01:11.498Z,2.40
2022-08-11T01:04:16.117Z,2.72
2022-08-11T01:08:01.075Z,2.30
2022-08-11T01:10:47.135Z,2.20
2022-08-11T01:13:33.378Z,2.63
2022-08-11T01:16:31.262Z,2.40
2022-08-11T01:19:34.451Z,2.67
2022-08-11T01:23:04.194Z,2.30
2022-08-11T01:26:04.969Z,2.90
2022-08-11T01:29:11.964Z,2.45
2022-08-11T01:32:08.239Z,2.40
2022-08-11T01:35:18.602Z,2.63
2022-08-11T01:38:28.465Z,2.40
2022-08-11T01:41:47.568Z,2.60
2022-08-11T01:44:39.704Z,2.05
2022-08-11T01:47:37.181Z,2.28
2022-08-11T01:50:15.684Z,2.35
2022-08-11T01:53:01.209Z,2.38
2022-08-11T01:55:38.975Z,2.40
2022-08-11T01:58:17.096Z,2.10
2022-08-11T02:00:56.375Z,2.33
2022-08-11T02:03:29.955Z,2.60
2022-08-11T02:06:25.930Z,2.67
2022-08-11T02:09:03.266Z,3.10
2022-08-11T02:11:37.501Z,2.50
2022-08-11T02:14:22.704Z,2.45
2022-08-11T02:17:03.755Z,2.55
2022-08-11T02:20:01.240Z,2.22
2022-08-11T02:22:53.200Z,2.55
2022-08-11T02:25:28.534Z,2.60
2022-08-11T02:28:04.342Z,2.28
2022-08-11T02:30:36.560Z,2.78
2022-08-11T02:33:25.122Z,2.75
2022-08-11T02:36:02.729Z,2.80
2022-08-11T02:38:36.943Z,2.40
2022-08-11T02:41:31.654Z,2.55
2022-08-11T02:44:17.980Z,2.30
2022-08-11T02:46:58.128Z,2.50
2022-08-11T02:50:06.341Z,2.80
2022-08-11T02:52:42.428Z,2.78
2022-08-11T02:55:56.146Z,2.60
2022-08-11T02:58:27.110Z,2.65
2022-08-11T03:01:11.479Z,2.65
2022-08-11T03:03:48.582Z,2.63
2022-08-11T03:06:30.976Z,2.60
2022-08-11T03:09:07.613Z,2.65
2022-08-11T03:12:25.513Z,2.53
2022-08-11T03:15:18.793Z,2.80
2022-08-11T03:18:03.992Z,2.90
2022-08-11T03:20:40.426Z,2.90
2022-08-11T03:23:23.723Z,2.78
2022-08-11T03:26:02.624Z,3.38
2022-08-11T03:28:36.076Z,2.80
2022-08-11T03:31:17.270Z,3.22
2022-08-11T03:34:08.075Z,2.75
2022-08-11T03:37:16.839Z,2.90
2022-08-11T03:40:01.137Z,3.20
2022-08-11T03:42:36.208Z,3.13
2022-08-11T03:45:18.442Z,3.20
2022-08-11T03:48:00.164Z,3.20
2022-08-11T03:51:03.966Z,3.42
2022-08-11T03:53:56.030Z,3.50
2022-08-11T03:56:58.079Z,3.28
2022-08-11T03:59:47.272Z,3.28
2022-08-11T04:02:36.861Z,3.55
2022-08-11T04:05:42.637Z,3.20
2022-08-11T04:08:34.280Z,3.53
2022-08-11T04:11:38.481Z,3.45
2022-08-11T04:14:46.563Z,3.15
2022-08-11T04:17:47.362Z,3.38
2022-08-11T04:20:53.572Z,3.40
2022-08-11T04:24:36.171Z,3.47
2022-08-11T04:27:13.251Z,3.53
2022-08-11T04:30:03.619Z,3.95
2022-08-11T04:33:06.154Z,3.40
2022-08-11T04:35:50.993Z,3.65
2022-08-11T04:38:59.570Z,3.90
2022-08-11T04:42:09.963Z,3.90
2022-08-11T04:45:13.269Z,3.63
2022-08-11T04:48:20.191Z,3.63
2022-08-11T04:51:45.796Z,3.78
2022-08-11T04:54:48.051Z,3.90
2022-08-11T04:57:41.440Z,3.60
2022-08-11T05:03:31.044Z,4.38
2022-08-11T05:06:44.253Z,3.90
2022-08-11T05:09:47.427Z,3.58
2022-08-11T05:12:29.939Z,3.70
2022-08-11T05:15:17.579Z,3.97
2022-08-11T05:18:10.759Z,3.90
2022-08-11T05:21:05.420Z,3.90
2022-08-11T05:23:53.124Z,3.60
2022-08-11T05:26:46.017Z,4.43
2022-08-11T05:30:00.139Z,3.92
2022-08-11T05:32:53.632Z,3.72
2022-08-11T05:36:02.316Z,4.20
2022-08-11T05:38:42.557Z,4.13
2022-08-11T05:41:30.882Z,4.07
2022-08-11T05:44:22.233Z,3.83
2022-08-11T05:47:09.004Z,4.20
2022-08-11T05:49:56.678Z,3.80
2022-08-11T05:52:46.849Z,4.25
2022-08-11T05:55:34.053Z,4.07
2022-08-11T05:58:04.850Z,4.10
2022-08-11T06:00:43.135Z,4.10
2022-08-11T06:03:12.271Z,3.75
2022-08-11T06:05:43.600Z,4.20
2022-08-11T06:08:13.498Z,3.80
2022-08-11T06:10:44.245Z,3.42
2022-08-11T06:13:17.026Z,4.18
2022-08-11T06:15:50.284Z,3.55
2022-08-11T06:18:19.439Z,4.22
2022-08-11T06:20:48.994Z,3.97
2022-08-11T06:23:19.489Z,4.25
2022-08-11T06:25:49.117Z,4.25
2022-08-11T06:28:21.095Z,4.68
2022-08-11T06:30:51.621Z,4.30
2022-08-11T06:33:30.844Z,4.20
2022-08-11T06:36:11.896Z,4.88
2022-08-11T06:43:55.972Z,4.13
2022-08-11T06:46:32.293Z,4.80
2022-08-11T06:49:03.253Z,4.22
2022-08-11T06:51:32.390Z,4.45
2022-08-11T06:54:05.377Z,4.35
2022-08-11T06:57:26.327Z,4.65
2022-08-11T07:00:01.925Z,3.80
2022-08-11T07:02:35.026Z,4.00
2022-08-11T07:05:09.596Z,4.00
2022-08-11T07:08:42.430Z,4.03
2022-08-11T07:12:10.636Z,4.18
2022-08-11T07:15:01.033Z,3.90
2022-08-11T07:17:33.034Z,3.72
2022-08-11T07:20:22.020Z,4.40
2022-08-11T07:23:13.217Z,4.07
2022-08-11T07:26:01.248Z,3.90
2022-08-11T07:28:50.134Z,4.00
2022-08-11T07:31:32.716Z,3.30
2022-08-11T07:34:18.160Z,3.05
2022-08-11T07:36:51.041Z,3.70
2022-08-11T07:39:23.306Z,3.53
2022-08-11T07:41:55.154Z,3.38
2022-08-11T07:44:29.492Z,3.88
2022-08-11T07:47:18.925Z,3.50
2022-08-11T07:50:08.685Z,3.35
2022-08-11T07:52:39.951Z,3.50
2022-08-11T07:55:13.060Z,3.75
2022-08-11T07:58:15.586Z,3.47
2022-08-11T08:01:10.704Z,3.63
2022-08-11T08:04:08.382Z,3.53
2022-08-11T08:06:57.964Z,3.45
2022-08-11T08:09:44.405Z,3.55
2022-08-11T08:12:31.604Z,3.67
2022-08-11T08:15:17.765Z,3.33
2022-08-11T08:18:20.852Z,3.05
2022-08-11T08:20:49.672Z,3.42
2022-08-11T08:23:33.894Z,2.85
2022-08-11T08:26:05.819Z,2.90
2022-08-11T08:28:46.693Z,3.05
2022-08-11T08:31:15.358Z,3.30
2022-08-11T08:33:44.567Z,3.17
2022-08-11T08:36:15.384Z,3.33
2022-08-11T08:38:49.613Z,3.00
2022-08-11T08:41:23.481Z,3.10
2022-08-11T08:43:59.854Z,3.20
2022-08-11T08:46:47.543Z,3.00
2022-08-11T08:49:19.378Z,2.77
2022-08-11T08:52:01.751Z,2.63
2022-08-11T08:54:46.013Z,3.20
2022-08-11T08:57:14.875Z,2.88
2022-08-11T08:59:49.016Z,3.17
2022-08-11T09:02:34.602Z,3.25
2022-08-11T09:05:04.867Z,2.80
2022-08-11T09:07:39.633Z,3.22
2022-08-11T09:10:11.965Z,3.00
2022-08-11T09:12:42.872Z,2.70
2022-08-11T09:15:14.920Z,2.53
2022-08-11T09:17:49.500Z,2.80
2022-08-11T09:20:21.769Z,2.70
2022-08-11T09:26:19.042Z,3.10
2022-08-11T09:28:49.708Z,2.58
2022-08-11T09:31:18.036Z,2.30
2022-08-11T09:33:53.375Z,2.83
2022-08-11T09:36:39.891Z,2.85
2022-08-11T09:39:26.153Z,2.58
2022-08-11T09:42:01.424Z,3.05
2022-08-11T09:44:48.942Z,2.67
2022-08-11T09:47:24.396Z,3.10
2022-08-11T09:49:56.303Z,2.90
2022-08-11T09:52:25.859Z,2.55
2022-08-11T09:54:55.699Z,2.20
2022-08-11T09:57:44.923Z,2.78
2022-08-11T10:00:15.264Z,2.55
2022-08-11T10:02:45.780Z,2.90
2022-08-11T10:05:35.827Z,2.88
2022-08-11T10:08:04.936Z,2.63
2022-08-11T10:10:37.183Z,2.55
2022-08-11T10:14:31.870Z,2.38
2022-08-11T10:16:15.763Z,2.53
2022-08-11T10:18:53.384Z,2.65
2022-08-11T10:21:34.874Z,2.40
2022-08-11T10:24:21.280Z,2.03
2022-08-11T10:26:54.750Z,2.33
2022-08-11T10:29:49.560Z,2.55
2022-08-11T10:32:57.329Z,2.03
2022-08-11T10:35:28.350Z,2.30
2022-08-11T10:38:08.655Z,2.50
2022-08-11T10:40:40.454Z,2.33
2022-08-11T10:43:13.785Z,2.30
2022-08-11T10:46:04.509Z,2.10
2022-08-11T10:48:38.973Z,2.30
2022-08-11T10:51:13.851Z,1.98
2022-08-11T10:54:02.915Z,2.15
2022-08-11T10:56:51.944Z,2.22
2022-08-11T10:59:20.254Z,1.95
2022-08-11T11:01:50.265Z,2.00
2022-08-11T11:04:20.050Z,2.42
2022-08-11T11:07:00.541Z,2.30
2022-08-11T11:09:32.358Z,2.15
2022-08-11T11:12:22.099Z,2.20
2022-08-11T11:15:17.864Z,2.40
2022-08-11T11:18:01.625Z,1.95
2022-08-11T11:20:37.610Z,1.90
2022-08-11T11:23:11.319Z,1.95
2022-08-11T11:26:10.874Z,1.85
2022-08-11T11:29:09.271Z,2.03
2022-08-11T11:31:51.773Z,2.00
2022-08-11T11:36:58.194Z,1.90
2022-08-11T11:39:28.771Z,2.03
2022-08-11T11:41:58.695Z,1.95
2022-08-11T11:44:27.777Z,1.73
2022-08-11T11:46:56.901Z,2.13
2022-08-11T11:49:32.270Z,1.80
2022-08-11T11:52:01.751Z,2.00
2022-08-11T11:54:32.474Z,2.10
2022-08-11T11:57:23.447Z,1.88
2022-08-11T12:00:10.797Z,1.90
2022-08-11T12:02:41.908Z,1.90
2022-08-11T12:05:12.992Z,1.77
2022-08-11T12:08:13.216Z,1.98
2022-08-11T12:10:44.645Z,1.90
2022-08-11T12:13:31.301Z,1.80
2022-08-11T12:16:34.852Z,2.05
2022-08-11T12:18:54.145Z,1.80
2022-08-11T12:21:25.604Z,1.80
2022-08-11T12:24:13.626Z,1.63
2022-08-11T12:27:16.504Z,1.98
2022-08-11T12:29:52.830Z,1.95
2022-08-11T12:32:24.606Z,1.55
2022-08-11T12:34:52.897Z,1.60
2022-08-11T12:37:30.220Z,1.90
2022-08-11T12:40:50.086Z,1.90
2022-08-11T12:43:37.964Z,1.90
2022-08-11T12:46:11.176Z,1.73
2022-08-11T12:49:03.086Z,2.00
2022-08-11T12:52:11.036Z,1.88
2022-08-11T12:54:52.708Z,1.80
2022-08-11T12:57:47.271Z,1.90
2022-08-11T13:00:34.423Z,1.98
2022-08-11T13:03:24.039Z,1.60
2022-08-11T13:05:55.467Z,1.98
2022-08-11T13:08:26.192Z,2.07
2022-08-11T13:11:15.716Z,2.05
2022-08-11T13:13:53.587Z,1.90
2022-08-11T13:16:27.674Z,2.08
2022-08-11T13:18:57.394Z,2.05
2022-08-11T13:21:26.063Z,1.83
2022-08-11T13:24:01.233Z,1.70
2022-08-11T13:26:48.281Z,1.90
2022-08-11T13:29:20.551Z,1.80
2022-08-11T13:31:49.733Z,1.80
2022-08-11T13:34:19.737Z,1.90
2022-08-11T13:36:52.397Z,1.80
2022-08-11T13:39:23.865Z,2.03
2022-08-11T13:41:56.804Z,2.00
2022-08-11T13:44:28.261Z,1.88
2022-08-11T13:47:01.388Z,1.93
2022-08-11T13:49:32.011Z,1.90
2022-08-11T13:52:02.205Z,1.70
2022-08-11T13:54:34.872Z,1.90
2022-08-11T13:57:09.036Z,2.00
2022-08-11T13:59:51.869Z,2.10
2022-08-11T14:02:30.850Z,1.90
2022-08-11T14:05:04.255Z,1.80
2022-08-11T14:07:39.270Z,2.00
2022-08-11T14:10:10.318Z,2.00
2022-08-11T14:13:01.842Z,1.90
2022-08-11T14:15:34.094Z,1.90
2022-08-11T14:18:06.614Z,1.80
2022-08-11T14:20:56.001Z,1.80
2022-08-11T14:23:29.207Z,2.00
2022-08-11T14:26:15.701Z,2.25
2022-08-11T14:28:45.614Z,1.85
2022-08-11T14:31:15.676Z,2.10
2022-08-11T14:33:58.460Z,1.95
2022-08-11T14:36:34.043Z,1.98
2022-08-11T14:39:05.481Z,1.85
2022-08-11T14:42:09.916Z,1.73
2022-08-11T14:45:02.886Z,1.75
2022-08-11T14:47:34.837Z,1.95
2022-08-11T14:52:45.817Z,1.90
2022-08-11T14:55:32.396Z,1.98
2022-08-11T14:58:01.817Z,2.00
2022-08-11T15:00:32.477Z,1.92
2022-08-11T15:03:12.890Z,1.95
2022-08-11T15:05:57.020Z,1.73
2022-08-11T15:08:49.114Z,1.98
2022-08-11T15:11:36.461Z,1.75
2022-08-11T15:14:07.047Z,1.95
2022-08-11T15:16:56.083Z,2.03
2022-08-11T15:19:40.447Z,1.95
2022-08-11T15:22:28.477Z,1.77
2022-08-11T15:24:58.577Z,2.10
2022-08-11T15:27:44.515Z,2.20
2022-08-11T15:30:32.887Z,1.95
2022-08-11T15:33:24.505Z,2.15
2022-08-11T15:36:11.222Z,1.90
2022-08-11T15:38:45.650Z,1.73
2022-08-11T15:41:35.775Z,2.13
2022-08-11T15:44:51.366Z,1.70
2022-08-11T15:47:19.329Z,1.60
2022-08-11T15:50:10.600Z,1.80
2022-08-11T15:52:48.307Z,1.75
2022-08-11T15:55:18.662Z,1.60
2022-08-11T15:58:07.618Z,1.80
2022-08-11T16:00:57.994Z,1.70
2022-08-11T16:04:07.875Z,2.00
2022-08-11T16:06:46.302Z,2.08
2022-08-11T16:09:21.486Z,2.00
2022-08-11T16:14:37.423Z,2.20
2022-08-11T16:17:08.195Z,1.92
2022-08-11T16:19:38.262Z,2.00
2022-08-11T16:22:12.803Z,1.85
2022-08-11T16:27:04.505Z,1.73
2022-08-11T16:27:37.526Z,2.00
2022-08-11T16:30:07.192Z,2.30
2022-08-11T16:32:38.068Z,1.80
2022-08-11T16:35:26.788Z,1.92
2022-08-11T16:38:15.938Z,2.03
2022-08-11T16:40:45.470Z,2.13
2022-08-11T16:43:35.550Z,1.92
2022-08-11T16:46:33.826Z,1.92
2022-08-11T16:49:04.414Z,2.00
2022-08-11T16:51:33.435Z,1.83
2022-08-11T16:54:05.466Z,2.08
2022-08-11T16:56:39.980Z,2.00
2022-08-11T16:59:17.593Z,2.05
2022-08-11T17:01:53.316Z,1.80
2022-08-11T17:04:52.630Z,1.92
2022-08-11T17:07:43.120Z,1.92
2022-08-11T17:10:50.877Z,1.90
2022-08-11T17:13:24.879Z,1.90
2022-08-11T17:16:12.094Z,1.85
2022-08-11T17:18:57.211Z,1.67
2022-08-11T17:21:30.226Z,1.90
2022-08-11T17:24:06.387Z,1.60
2022-08-11T17:26:58.284Z,1.90
2022-08-11T17:29:30.142Z,1.67
2022-08-11T17:32:16.015Z,1.55
2022-08-11T17:35:04.234Z,1.50
2022-08-11T17:37:34.487Z,1.83
2022-08-11T17:40:06.171Z,1.80
2022-08-11T17:42:55.757Z,1.57
2022-08-11T17:45:44.963Z,1.75
2022-08-11T17:48:28.586Z,1.80
2022-08-11T17:50:59.249Z,1.80
2022-08-11T17:54:16.990Z,1.50
2022-08-11T17:56:53.336Z,1.50
2022-08-11T17:59:43.831Z,1.70
2022-08-11T18:02:37.314Z,1.90
2022-08-11T18:05:12.284Z,1.70
2022-08-11T18:08:00.393Z,1.50
2022-08-11T18:10:48.133Z,1.45
2022-08-11T18:13:36.070Z,1.67
2022-08-11T18:16:23.412Z,1.60
2022-08-11T18:19:09.031Z,1.60
2022-08-11T18:22:14.358Z,1.73
2022-08-11T18:25:07.297Z,1.70
2022-08-11T18:28:00.722Z,1.63
2022-08-11T18:30:48.076Z,1.92
2022-08-11T18:34:06.012Z,1.83
2022-08-11T18:36:49.611Z,1.73
2022-08-11T18:39:38.896Z,1.85
2022-08-11T18:42:31.031Z,1.90
2022-08-11T18:45:18.668Z,2.03
2022-08-11T18:48:07.329Z,1.63
2022-08-11T18:51:29.573Z,1.70
2022-08-11T18:54:09.396Z,1.83
2022-08-11T18:56:55.089Z,1.88
2022-08-11T18:59:46.221Z,1.50
2022-08-11T19:02:49.106Z,1.70
2022-08-11T19:06:06.051Z,1.95
2022-08-11T19:08:48.225Z,1.50
2022-08-11T19:11:33.909Z,1.88
2022-08-11T19:14:21.716Z,1.60
2022-08-11T19:17:09.805Z,1.70
2022-08-11T19:19:58.003Z,1.80
2022-08-11T19:22:46.163Z,1.60
2022-08-11T19:25:35.026Z,1.90
2022-08-11T19:28:25.052Z,1.75
2022-08-11T19:31:12.464Z,1.80
2022-08-11T19:34:02.698Z,1.80
2022-08-11T19:36:57.064Z,1.70
2022-08-11T19:39:45.465Z,1.88
2022-08-11T19:42:33.486Z,1.60
2022-08-11T19:45:21.082Z,1.70
2022-08-11T19:48:30.743Z,2.00
2022-08-11T19:51:14.967Z,1.85
2022-08-11T19:54:01.637Z,1.52
2022-08-11T19:56:47.954Z,1.80
2022-08-11T19:59:39.192Z,1.83
2022-08-11T20:02:25.439Z,1.70
2022-08-11T20:05:11.202Z,1.90
2022-08-11T20:07:57.199Z,1.90
2022-08-11T20:10:44.501Z,2.03
2022-08-11T20:13:31.731Z,1.92
2022-08-11T20:16:20.646Z,2.08
2022-08-11T20:19:08.447Z,1.90
2022-08-11T20:21:54.635Z,2.00
2022-08-11T20:24:40.937Z,1.70
2022-08-11T20:27:28.559Z,1.98
2022-08-11T20:30:17.442Z,2.00
2022-08-11T20:33:05.791Z,2.10
2022-08-11T20:35:54.533Z,1.80
2022-08-11T20:38:41.731Z,2.15
2022-08-11T20:41:30.116Z,1.98
2022-08-11T20:44:17.334Z,2.03
2022-08-11T20:47:05.629Z,1.80
2022-08-11T20:50:02.974Z,1.75
2022-08-11T20:52:50.967Z,1.90
2022-08-11T20:55:51.274Z,1.90
2022-08-11T21:01:46.361Z,1.77
2022-08-11T21:04:32.770Z,1.77
2022-08-11T21:07:23.557Z,1.92
2022-08-11T21:10:23.699Z,1.80
2022-08-11T21:13:25.035Z,2.00
2022-08-11T21:16:25.149Z,1.75
2022-08-11T21:19:19.215Z,1.70
2022-08-11T21:22:28.099Z,1.77
2022-08-11T21:25:16.298Z,1.70
2022-08-11T21:28:04.517Z,2.05
2022-08-11T21:30:53.997Z,2.00
2022-08-11T21:33:45.148Z,1.90
2022-08-11T21:36:30.938Z,1.88
2022-08-11T21:39:19.811Z,1.90
2022-08-11T21:42:12.197Z,1.98
2022-08-11T21:45:01.697Z,1.92
2022-08-11T21:47:48.519Z,2.10
2022-08-11T21:50:34.644Z,1.77
2022-08-11T21:53:21.364Z,1.90
2022-08-11T21:56:11.272Z,1.92
2022-08-11T21:58:58.223Z,1.60
2022-08-11T22:01:52.736Z,1.55
2022-08-11T22:04:39.780Z,1.80
2022-08-11T22:07:26.814Z,1.95
2022-08-11T22:10:40.192Z,1.80
2022-08-11T22:13:20.691Z,1.80
2022-08-11T22:16:06.737Z,1.60
2022-08-11T22:18:54.025Z,1.92
2022-08-11T22:22:01.244Z,2.13
2022-08-11T22:24:47.523Z,1.90
2022-08-11T22:27:33.735Z,2.10
2022-08-11T22:30:20.889Z,2.00
2022-08-11T22:33:06.750Z,1.85
2022-08-11T22:35:54.341Z,2.00
2022-08-11T22:38:40.739Z,1.70
2022-08-11T22:41:26.511Z,1.80
2022-08-11T22:44:12.148Z,2.03
2022-08-11T22:47:01.010Z,1.98
2022-08-11T22:49:58.116Z,2.00
2022-08-11T22:52:45.459Z,2.28
2022-08-11T22:55:31.798Z,2.05
2022-08-11T22:58:18.309Z,2.00
2022-08-11T23:01:04.523Z,1.92
2022-08-11T23:03:53.025Z,2.38
2022-08-11T23:06:39.725Z,1.92
2022-08-11T23:09:27.017Z,2.38
2022-08-11T23:12:12.859Z,2.30
2022-08-11T23:15:00.932Z,2.10
2022-08-11T23:17:49.576Z,2.20
2022-08-11T23:20:43.170Z,2.42
2022-08-11T23:23:33.438Z,2.30
2022-08-11T23:26:20.272Z,2.10
2022-08-11T23:29:06.535Z,2.20
2022-08-11T23:31:54.825Z,2.25
2022-08-11T23:35:03.889Z,2.03
2022-08-11T23:37:51.980Z,1.95
2022-08-11T23:40:37.390Z,2.72
2022-08-11T23:43:23.739Z,2.45
2022-08-11T23:46:09.217Z,2.38
2022-08-11T23:48:56.012Z,2.10
2022-08-11T23:51:41.910Z,2.40
2022-08-11T23:54:32.623Z,2.50
